createdAt,value
2022-11-03T00:02:13.462Z,10.16
2022-11-03T00:04:43.692Z,10.23
2022-11-03T00:07:13.870Z,10.28
2022-11-03T00:09:44.753Z,10.25
2022-11-03T00:12:17.556Z,10.25
2022-11-03T00:14:47.613Z,10.26
2022-11-03T00:17:17.631Z,10.23
2022-11-03T00:19:47.754Z,10.20
2022-11-03T00:22:17.958Z,10.20
2022-11-03T00:24:48.020Z,10.18
2022-11-03T00:27:20.847Z,10.15
2022-11-03T00:29:50.944Z,10.10
2022-11-03T00:32:21.084Z,10.13
2022-11-03T00:34:51.248Z,10.09
2022-11-03T00:37:21.385Z,10.01
2022-11-03T00:39:51.518Z,9.88
2022-11-03T00:42:24.319Z,9.74
2022-11-03T00:44:54.525Z,9.74
2022-11-03T00:47:24.632Z,9.83
2022-11-03T00:49:54.754Z,9.81
2022-11-03T00:52:24.801Z,9.66
2022-11-03T00:54:55.381Z,9.51
2022-11-03T00:57:28.291Z,9.48
2022-11-03T00:59:58.466Z,9.46
2022-11-03T01:02:28.682Z,9.53
2022-11-03T01:05:11.220Z,9.58
2022-11-03T01:07:41.244Z,9.57
2022-11-03T01:10:11.953Z,9.56
2022-11-03T01:12:42.025Z,9.50
2022-11-03T01:15:12.591Z,9.45
2022-11-03T01:17:43.639Z,9.42
2022-11-03T01:20:14.490Z,9.40
2022-11-03T01:22:44.578Z,9.42
2022-11-03T01:25:14.593Z,9.43
2022-11-03T01:27:47.308Z,9.45
2022-11-03T01:30:17.703Z,9.42
2022-11-03T01:32:47.873Z,9.40
2022-11-03T01:35:18.196Z,9.34
2022-11-03T01:37:48.223Z,9.30
2022-11-03T01:40:18.386Z,9.29
2022-11-03T01:42:51.054Z,9.34
2022-11-03T01:45:21.310Z,9.36
2022-11-03T01:47:51.395Z,9.37
2022-11-03T01:50:23.224Z,9.40
2022-11-03T01:52:58.360Z,9.43
2022-11-03T01:55:33.126Z,9.42
2022-11-03T01:58:10.401Z,9.48
2022-11-03T02:00:41.236Z,9.44
2022-11-03T02:03:11.435Z,9.41
2022-11-03T02:05:43.314Z,9.36
2022-11-03T02:08:19.099Z,9.29
2022-11-03T02:10:51.234Z,9.20
2022-11-03T02:13:27.498Z,9.25
2022-11-03T02:16:00.849Z,9.32
2022-11-03T02:18:36.002Z,9.38
2022-11-03T02:21:21.139Z,9.36
2022-11-03T02:24:02.358Z,9.32
2022-11-03T02:26:34.955Z,9.32
2022-11-03T02:29:05.315Z,9.35
2022-11-03T02:31:44.635Z,9.37
2022-11-03T02:34:23.256Z,9.41
2022-11-03T02:36:59.075Z,9.42
2022-11-03T02:39:37.945Z,9.49
2022-11-03T02:42:12.741Z,9.51
2022-11-03T02:44:45.127Z,9.59
2022-11-03T02:47:17.417Z,9.51
2022-11-03T02:49:50.728Z,9.44
2022-11-03T02:52:43.344Z,9.43
2022-11-03T02:55:19.182Z,9.46
2022-11-03T02:57:58.029Z,9.42
2022-11-03T03:00:28.085Z,9.41
2022-11-03T03:03:06.470Z,9.38
2022-11-03T03:05:39.625Z,9.47
2022-11-03T03:08:13.323Z,9.48
2022-11-03T03:10:47.621Z,9.57
2022-11-03T03:13:23.495Z,9.62
2022-11-03T03:16:08.796Z,9.67
2022-11-03T03:18:51.146Z,9.67
2022-11-03T03:21:26.992Z,9.66
2022-11-03T03:24:02.444Z,9.64
2022-11-03T03:26:38.561Z,9.53
2022-11-03T03:29:17.992Z,9.25
2022-11-03T03:31:54.630Z,9.17
2022-11-03T03:34:36.315Z,9.12
2022-11-03T03:37:09.591Z,9.10
2022-11-03T03:39:44.461Z,8.98
2022-11-03T03:42:17.934Z,8.93
2022-11-03T03:44:51.895Z,8.88
2022-11-03T03:47:26.729Z,8.91
2022-11-03T03:49:56.835Z,8.93
2022-11-03T03:52:27.788Z,8.93
2022-11-03T03:54:59.002Z,9.01
2022-11-03T03:57:30.672Z,8.87
2022-11-03T04:00:04.427Z,8.72
2022-11-03T04:02:42.517Z,8.59
2022-11-03T04:05:12.562Z,8.61
2022-11-03T04:07:51.837Z,8.61
2022-11-03T04:10:25.396Z,8.65
2022-11-03T04:13:07.901Z,8.71
2022-11-03T04:15:53.149Z,8.76
2022-11-03T04:18:37.441Z,8.79
2022-11-03T04:21:20.630Z,8.90
2022-11-03T04:23:50.655Z,8.95
2022-11-03T04:26:23.756Z,9.02
2022-11-03T04:28:56.045Z,9.09
2022-11-03T04:31:31.522Z,9.21
2022-11-03T04:34:01.856Z,9.27
2022-11-03T04:36:32.612Z,9.34
2022-11-03T04:39:02.741Z,9.32
2022-11-03T04:41:36.093Z,9.43
2022-11-03T04:44:15.109Z,9.53
2022-11-03T04:46:49.223Z,9.61
2022-11-03T04:49:26.890Z,9.66
2022-11-03T04:51:57.111Z,9.74
2022-11-03T04:54:27.298Z,9.75
2022-11-03T04:56:57.375Z,9.80
2022-11-03T04:59:28.821Z,9.83
2022-11-03T05:02:02.465Z,9.85
2022-11-03T05:04:32.843Z,9.91
2022-11-03T05:07:03.034Z,9.97
2022-11-03T05:09:38.921Z,9.90
2022-11-03T05:12:12.948Z,9.87
2022-11-03T05:14:43.004Z,9.88
2022-11-03T05:17:26.611Z,9.83
2022-11-03T05:20:04.498Z,9.82
2022-11-03T05:22:39.067Z,9.77
2022-11-03T05:25:38.076Z,9.74
2022-11-03T05:28:21.757Z,9.82
2022-11-03T05:30:53.433Z,9.86
2022-11-03T05:33:32.415Z,9.75
2022-11-03T05:36:10.924Z,9.68
2022-11-03T05:38:40.991Z,9.70
2022-11-03T05:41:19.527Z,9.72
2022-11-03T05:43:56.686Z,9.77
2022-11-03T05:46:27.459Z,9.65
2022-11-03T05:49:00.902Z,9.65
2022-11-03T05:51:36.312Z,9.68
2022-11-03T05:54:17.041Z,9.76
2022-11-03T05:56:50.654Z,9.79
2022-11-03T05:59:26.134Z,9.81
2022-11-03T06:01:57.253Z,9.88
2022-11-03T06:04:36.932Z,9.89
2022-11-03T06:07:19.602Z,9.86
2022-11-03T06:09:49.679Z,9.88
2022-11-03T06:12:23.960Z,9.93
2022-11-03T06:14:55.076Z,9.95
2022-11-03T06:17:26.817Z,10.03
2022-11-03T06:20:02.527Z,10.08
2022-11-03T06:22:35.005Z,10.13
2022-11-03T06:25:22.080Z,10.14
2022-11-03T06:27:52.828Z,10.19
2022-11-03T06:30:27.839Z,10.17
2022-11-03T06:33:01.754Z,10.23
2022-11-03T06:35:34.434Z,10.23
2022-11-03T06:38:04.897Z,10.22
2022-11-03T06:40:39.955Z,10.27
2022-11-03T06:43:25.771Z,10.16
2022-11-03T06:45:58.932Z,10.17
2022-11-03T06:48:31.647Z,10.43
2022-11-03T06:51:05.132Z,10.59
2022-11-03T06:53:36.822Z,10.75
2022-11-03T06:56:16.085Z,10.89
2022-11-03T06:58:46.352Z,11.06
2022-11-03T07:01:21.620Z,11.21
2022-11-03T07:03:54.111Z,11.29
2022-11-03T07:06:32.565Z,11.56
2022-11-03T07:09:05.103Z,11.48
2022-11-03T07:11:40.377Z,11.75
2022-11-03T07:14:16.366Z,11.81
2022-11-03T07:16:50.875Z,12.19
2022-11-03T07:19:24.436Z,12.35
2022-11-03T07:21:59.720Z,12.55
2022-11-03T07:24:34.025Z,12.72
2022-11-03T07:27:17.828Z,12.73
2022-11-03T07:29:49.071Z,12.75
2022-11-03T07:32:23.664Z,12.97
2022-11-03T07:34:56.821Z,12.97
2022-11-03T07:37:29.837Z,13.07
2022-11-03T07:40:01.669Z,13.01
2022-11-03T07:42:32.048Z,12.99
2022-11-03T07:45:04.241Z,12.81
2022-11-03T07:47:34.363Z,12.85
2022-11-03T07:50:06.333Z,13.05
2022-11-03T07:52:40.154Z,13.12
2022-11-03T07:55:16.200Z,13.35
2022-11-03T07:57:47.186Z,13.56
2022-11-03T08:00:22.788Z,13.77
2022-11-03T08:02:58.057Z,13.86
2022-11-03T08:05:28.193Z,14.14
2022-11-03T08:08:00.816Z,14.18
2022-11-03T08:10:31.156Z,14.61
2022-11-03T08:13:01.230Z,15.21
2022-11-03T08:15:31.369Z,15.80
2022-11-03T08:18:01.430Z,16.40
2022-11-03T08:20:31.500Z,16.91
2022-11-03T08:23:24.603Z,17.46
2022-11-03T08:25:54.482Z,17.70
2022-11-03T08:28:24.881Z,17.17
2022-11-03T08:30:55.086Z,16.62
2022-11-03T08:33:25.241Z,16.48
2022-11-03T08:35:55.543Z,15.97
2022-11-03T08:38:28.623Z,15.79
2022-11-03T08:40:59.639Z,15.92
2022-11-03T08:43:29.969Z,16.51
2022-11-03T08:46:08.383Z,16.39
2022-11-03T08:48:43.736Z,16.50
2022-11-03T08:51:14.179Z,16.29
2022-11-03T08:53:50.762Z,16.57
2022-11-03T08:56:22.669Z,16.88
2022-11-03T08:58:53.093Z,17.54
2022-11-03T09:01:23.421Z,17.75
2022-11-03T09:03:53.769Z,17.87
2022-11-03T09:06:24.241Z,17.95
2022-11-03T09:11:47.135Z,18.05
2022-11-03T09:14:17.450Z,18.58
2022-11-03T09:16:47.699Z,18.70
2022-11-03T09:19:17.768Z,18.59
2022-11-03T09:21:47.976Z,18.70
2022-11-03T09:24:20.717Z,18.72
2022-11-03T09:26:50.924Z,18.82
2022-11-03T09:29:21.110Z,18.48
2022-11-03T09:31:51.481Z,18.55
2022-11-03T09:34:21.582Z,18.67
2022-11-03T09:36:53.326Z,18.75
2022-11-03T09:39:26.317Z,18.60
2022-11-03T09:41:59.540Z,18.70
2022-11-03T09:44:30.203Z,18.76
2022-11-03T09:47:00.347Z,18.56
2022-11-03T09:49:31.990Z,18.78
2022-11-03T09:52:02.792Z,18.90
2022-11-03T09:54:35.300Z,18.71
2022-11-03T09:57:15.528Z,18.51
2022-11-03T09:59:48.381Z,18.66
2022-11-03T10:02:26.417Z,18.87
2022-11-03T10:05:00.292Z,19.00
2022-11-03T10:07:33.180Z,19.21
2022-11-03T10:10:06.178Z,19.32
2022-11-03T10:12:39.968Z,18.93
2022-11-03T10:15:18.441Z,18.35
2022-11-03T10:17:50.705Z,17.82
2022-11-03T10:20:24.212Z,17.18
2022-11-03T10:22:56.903Z,16.95
2022-11-03T10:25:40.462Z,17.11
2022-11-03T10:28:22.960Z,17.34
2022-11-03T10:31:14.492Z,17.73
2022-11-03T10:33:54.828Z,18.11
2022-11-03T10:36:29.072Z,18.82
2022-11-03T10:39:01.791Z,18.99
2022-11-03T10:41:35.362Z,19.47
2022-11-03T10:44:09.379Z,19.73
2022-11-03T10:46:55.537Z,19.86
2022-11-03T10:49:25.962Z,20.36
2022-11-03T10:51:57.984Z,20.10
2022-11-03T10:54:28.435Z,19.83
2022-11-03T10:57:01.147Z,20.27
2022-11-03T10:59:37.000Z,20.93
2022-11-03T11:02:18.629Z,21.10
2022-11-03T11:04:51.838Z,21.29
2022-11-03T11:07:26.506Z,21.70
2022-11-03T11:09:57.537Z,21.75
2022-11-03T11:12:30.385Z,22.23
2022-11-03T11:15:02.644Z,22.62
2022-11-03T11:17:45.581Z,23.04
2022-11-03T11:20:38.484Z,23.42
2022-11-03T11:23:52.751Z,23.86
2022-11-03T11:26:45.216Z,23.92
2022-11-03T11:29:48.080Z,24.34
2022-11-03T11:32:59.621Z,24.56
2022-11-03T11:36:29.334Z,24.59
2022-11-03T11:39:01.462Z,24.55
2022-11-03T11:42:08.305Z,24.15
2022-11-03T11:45:03.602Z,23.66
2022-11-03T11:47:52.898Z,23.30
2022-11-03T11:50:32.430Z,23.38
2022-11-03T11:53:16.410Z,23.23
2022-11-03T11:55:52.683Z,22.76
2022-11-03T11:58:43.817Z,22.78
2022-11-03T12:01:32.873Z,23.60
2022-11-03T12:04:09.911Z,24.64
2022-11-03T12:06:42.611Z,25.76
2022-11-03T12:09:20.427Z,26.33
2022-11-03T12:11:55.625Z,26.20
2022-11-03T12:14:29.236Z,25.96
2022-11-03T12:17:23.272Z,25.87
2022-11-03T12:19:54.950Z,25.86
2022-11-03T12:22:43.922Z,25.85
2022-11-03T12:25:40.396Z,25.99
2022-11-03T12:28:10.651Z,26.43
2022-11-03T12:30:40.930Z,26.17
2022-11-03T12:33:13.327Z,26.62
2022-11-03T12:35:43.597Z,26.56
2022-11-03T12:38:13.645Z,25.81
2022-11-03T12:40:43.726Z,25.73
2022-11-03T12:43:13.558Z,25.34
2022-11-03T12:45:43.980Z,25.23
2022-11-03T12:48:16.900Z,25.05
2022-11-03T12:50:47.036Z,24.74
2022-11-03T12:53:17.135Z,25.01
2022-11-03T12:55:47.386Z,24.91
2022-11-03T12:58:17.432Z,23.82
2022-11-03T13:00:52.153Z,23.18
2022-11-03T13:03:28.147Z,22.21
2022-11-03T13:05:58.353Z,21.92
2022-11-03T13:08:28.709Z,21.31
2022-11-03T13:10:58.853Z,20.86
2022-11-03T13:13:29.891Z,20.56
2022-11-03T13:16:00.033Z,20.63
2022-11-03T13:18:32.790Z,20.44
2022-11-03T13:21:02.861Z,20.19
2022-11-03T13:23:32.943Z,20.17
2022-11-03T13:26:03.141Z,20.21
2022-11-03T13:28:33.428Z,20.80
2022-11-03T13:31:03.494Z,21.40
2022-11-03T13:33:36.263Z,21.73
2022-11-03T13:36:06.835Z,22.24
2022-11-03T13:38:37.049Z,22.60
2022-11-03T13:41:08.992Z,22.65
2022-11-03T13:43:39.583Z,22.26
2022-11-03T13:46:09.733Z,22.37
2022-11-03T13:51:32.586Z,21.92
2022-11-03T13:59:43.219Z,20.57
2022-11-03T14:05:11.274Z,20.26
2022-11-03T14:07:41.613Z,20.11
2022-11-03T14:10:13.095Z,19.85
2022-11-03T14:12:40.792Z,19.54
2022-11-03T14:15:13.772Z,19.05
2022-11-03T14:17:44.257Z,19.01
2022-11-03T14:20:17.305Z,18.86
2022-11-03T14:22:47.523Z,18.52
2022-11-03T14:25:20.344Z,18.29
2022-11-03T14:27:50.924Z,17.99
2022-11-03T14:30:21.275Z,17.64
2022-11-03T14:32:56.770Z,17.33
2022-11-03T14:35:32.118Z,17.06
2022-11-03T14:38:02.271Z,16.92
2022-11-03T14:40:44.866Z,16.86
2022-11-03T14:43:15.005Z,16.55
2022-11-03T14:45:45.122Z,16.36
2022-11-03T14:48:15.387Z,16.08
2022-11-03T14:50:48.310Z,15.90
2022-11-03T14:53:18.526Z,15.83
2022-11-03T14:55:48.676Z,15.68
2022-11-03T14:58:19.003Z,15.63
2022-11-03T15:00:49.224Z,15.58
2022-11-03T15:03:19.344Z,15.38
2022-11-03T15:05:54.507Z,15.22
2022-11-03T15:08:26.487Z,15.19
2022-11-03T15:10:56.676Z,15.09
2022-11-03T15:13:26.864Z,15.00
2022-11-03T15:15:57.015Z,14.84
2022-11-03T15:18:27.190Z,14.67
2022-11-03T15:21:00.836Z,14.60
2022-11-03T15:26:21.611Z,14.23
2022-11-03T15:28:51.649Z,14.09
2022-11-03T15:31:23.727Z,14.06
2022-11-03T15:33:54.459Z,13.94
2022-11-03T15:36:27.346Z,13.93
2022-11-03T15:38:57.667Z,13.88
2022-11-03T15:41:27.915Z,13.71
2022-11-03T15:43:58.150Z,13.64
2022-11-03T15:46:28.223Z,13.61
2022-11-03T15:48:58.280Z,13.47
2022-11-03T15:51:31.015Z,13.28
2022-11-03T15:54:01.282Z,13.34
2022-11-03T15:56:31.597Z,13.27
2022-11-03T15:59:01.782Z,13.34
2022-11-03T16:01:31.980Z,13.27
2022-11-03T16:04:02.466Z,13.22
2022-11-03T16:07:01.576Z,13.22
2022-11-03T16:09:25.521Z,13.20
2022-11-03T16:11:55.615Z,13.16
2022-11-03T16:14:25.767Z,13.11
2022-11-03T16:16:56.745Z,13.16
2022-11-03T16:19:27.298Z,13.04
2022-11-03T16:22:00.193Z,13.04
2022-11-03T16:24:35.135Z,12.88
2022-11-03T16:27:06.444Z,12.94
2022-11-03T16:29:36.683Z,12.96
2022-11-03T16:32:06.850Z,13.05
2022-11-03T16:34:36.896Z,13.06
2022-11-03T16:37:09.620Z,13.04
2022-11-03T16:39:39.709Z,13.00
2022-11-03T16:42:09.835Z,13.05
2022-11-03T16:44:39.920Z,13.00
2022-11-03T16:47:09.946Z,12.84
2022-11-03T16:49:41.901Z,12.62
2022-11-03T16:52:14.851Z,12.64
2022-11-03T16:54:44.982Z,12.76
2022-11-03T16:57:15.168Z,12.78
2022-11-03T16:59:45.321Z,12.73
2022-11-03T17:02:16.793Z,12.64
2022-11-03T17:04:47.100Z,12.69
2022-11-03T17:07:19.854Z,12.62
2022-11-03T17:09:49.974Z,12.65
2022-11-03T17:12:20.083Z,12.65
2022-11-03T17:14:52.645Z,12.63
2022-11-03T17:17:25.852Z,12.67
2022-11-03T17:19:56.059Z,12.64
2022-11-03T17:22:28.798Z,12.70
2022-11-03T17:24:58.996Z,12.57
2022-11-03T17:27:32.206Z,12.61
2022-11-03T17:30:09.030Z,12.60
2022-11-03T17:32:42.718Z,12.59
2022-11-03T17:35:21.712Z,12.50
2022-11-03T17:37:56.530Z,12.64
2022-11-03T17:40:29.384Z,12.58
2022-11-03T17:42:59.820Z,12.55
2022-11-03T17:45:30.618Z,12.49
2022-11-03T17:48:00.792Z,12.57
2022-11-03T17:50:30.933Z,12.65
2022-11-03T17:53:05.269Z,12.72
2022-11-03T17:55:37.103Z,12.59
2022-11-03T17:58:08.836Z,12.59
2022-11-03T18:00:39.441Z,12.53
2022-11-03T18:03:15.255Z,12.65
2022-11-03T18:05:45.686Z,12.72
2022-11-03T18:08:20.258Z,12.71
2022-11-03T18:10:53.090Z,12.66
2022-11-03T18:13:26.360Z,12.61
2022-11-03T18:16:07.790Z,12.70
2022-11-03T18:18:41.340Z,12.63
2022-11-03T18:21:17.181Z,12.69
2022-11-03T18:23:50.123Z,12.79
2022-11-03T18:26:23.132Z,12.76
2022-11-03T18:28:54.117Z,12.74
2022-11-03T18:31:27.527Z,12.63
2022-11-03T18:33:57.618Z,12.63
2022-11-03T18:36:27.735Z,12.66
2022-11-03T18:39:01.562Z,12.70
2022-11-03T18:41:41.963Z,12.66
2022-11-03T18:44:22.773Z,12.67
2022-11-03T18:46:55.569Z,12.64
2022-11-03T18:49:27.974Z,12.60
2022-11-03T18:52:03.816Z,12.61
2022-11-03T18:54:38.305Z,12.62
2022-11-03T18:57:08.544Z,12.67
2022-11-03T18:59:42.448Z,12.73
2022-11-03T19:02:20.649Z,12.69
2022-11-03T19:04:51.081Z,12.64
2022-11-03T19:07:35.945Z,12.69
2022-11-03T19:10:13.161Z,12.72
2022-11-03T19:12:45.718Z,12.73
2022-11-03T19:15:23.567Z,12.76
2022-11-03T19:17:59.598Z,12.76
2022-11-03T19:20:29.832Z,12.77
2022-11-03T19:22:59.905Z,12.83
2022-11-03T19:25:32.629Z,12.88
2022-11-03T19:28:02.833Z,12.91
2022-11-03T19:30:32.970Z,12.96
2022-11-03T19:33:03.121Z,13.00
2022-11-03T19:35:36.305Z,13.03
2022-11-03T19:38:12.257Z,13.01
2022-11-03T19:41:06.022Z,13.09
2022-11-03T19:43:35.000Z,13.17
2022-11-03T19:46:06.060Z,13.19
2022-11-03T19:48:36.762Z,13.17
2022-11-03T19:51:09.448Z,13.22
2022-11-03T19:53:44.469Z,13.24
2022-11-03T19:56:20.465Z,13.27
2022-11-03T19:58:50.650Z,13.32
2022-11-03T20:01:20.922Z,13.35
2022-11-03T20:03:51.083Z,13.34
2022-11-03T20:06:21.148Z,13.33
2022-11-03T20:08:52.900Z,13.28
2022-11-03T20:11:25.752Z,13.27
2022-11-03T20:13:57.127Z,13.23
2022-11-03T20:16:27.648Z,13.28
2022-11-03T20:18:57.997Z,13.34
2022-11-03T20:21:34.298Z,13.29
2022-11-03T20:24:05.105Z,13.23
2022-11-03T20:26:37.859Z,13.29
2022-11-03T20:29:15.811Z,13.32
2022-11-03T20:31:47.584Z,13.36
2022-11-03T20:34:18.568Z,13.38
2022-11-03T20:36:48.487Z,13.37
2022-11-03T20:39:21.158Z,13.33
2022-11-03T20:41:56.705Z,13.43
2022-11-03T20:44:26.880Z,13.44
2022-11-03T20:46:56.983Z,13.50
2022-11-03T20:49:27.076Z,13.56
2022-11-03T20:51:57.401Z,13.59
2022-11-03T20:54:27.542Z,13.64
2022-11-03T20:57:00.172Z,13.67
2022-11-03T20:59:32.149Z,13.69
2022-11-03T21:02:04.993Z,13.75
2022-11-03T21:04:36.024Z,13.77
2022-11-03T21:07:06.531Z,13.83
2022-11-03T21:09:36.701Z,13.86
2022-11-03T21:12:13.905Z,13.84
2022-11-03T21:15:06.806Z,13.75
2022-11-03T21:17:49.393Z,13.63
2022-11-03T21:20:19.728Z,13.67
2022-11-03T21:22:52.874Z,13.73
2022-11-03T21:25:25.730Z,13.64
2022-11-03T21:27:59.543Z,13.67
2022-11-03T21:30:29.745Z,13.74
2022-11-03T21:32:59.896Z,13.75
2022-11-03T21:35:30.446Z,13.75
2022-11-03T21:38:00.594Z,13.76
2022-11-03T21:40:30.722Z,13.76
2022-11-03T21:43:15.912Z,13.82
2022-11-03T21:45:46.157Z,13.81
2022-11-03T21:48:29.614Z,13.86
2022-11-03T21:51:03.946Z,13.94
2022-11-03T21:53:34.431Z,13.82
2022-11-03T21:56:04.482Z,13.81
2022-11-03T21:58:37.342Z,13.79
2022-11-03T22:01:09.064Z,13.75
2022-11-03T22:03:41.617Z,13.78
2022-11-03T22:06:13.782Z,13.84
2022-11-03T22:08:47.657Z,13.89
2022-11-03T22:11:26.859Z,13.91
2022-11-03T22:14:02.901Z,13.95
2022-11-03T22:16:40.957Z,13.99
2022-11-03T22:19:27.598Z,13.98
2022-11-03T22:22:10.490Z,14.01
2022-11-03T22:24:53.684Z,13.99
2022-11-03T22:27:24.559Z,13.93
2022-11-03T22:30:09.814Z,13.92
2022-11-03T22:32:40.381Z,13.92
2022-11-03T22:35:25.148Z,13.85
2022-11-03T22:38:07.334Z,13.74
2022-11-03T22:40:51.502Z,13.77
2022-11-03T22:43:46.034Z,13.73
2022-11-03T22:46:20.986Z,13.74
2022-11-03T22:48:51.067Z,13.71
2022-11-03T22:51:21.125Z,13.74
2022-11-03T22:54:03.661Z,13.69
2022-11-03T22:56:33.958Z,13.63
2022-11-03T22:59:04.211Z,13.56
2022-11-03T23:01:38.118Z,13.46
2022-11-03T23:04:09.535Z,13.56
2022-11-03T23:06:41.945Z,13.56
2022-11-03T23:09:12.943Z,13.50
2022-11-03T23:11:43.110Z,13.43
2022-11-03T23:14:14.325Z,13.56
2022-11-03T23:16:48.006Z,13.61
2022-11-03T23:19:31.419Z,13.63
2022-11-03T23:22:02.566Z,13.62
2022-11-03T23:24:45.646Z,13.61
2022-11-03T23:27:16.737Z,13.56
2022-11-03T23:29:46.934Z,13.58
2022-11-03T23:32:19.847Z,13.55
2022-11-03T23:34:50.240Z,13.56
2022-11-03T23:37:20.464Z,13.58
2022-11-03T23:39:50.566Z,13.53
2022-11-03T23:42:20.724Z,13.55
2022-11-03T23:45:08.959Z,13.54
2022-11-03T23:47:54.093Z,13.55
2022-11-03T23:50:24.239Z,13.57
2022-11-03T23:52:54.306Z,13.55
2022-11-03T23:55:24.499Z,13.53
2022-11-03T23:58:07.304Z,13.55
